MDT,Max TemperatureF,Mean TemperatureF,Min TemperatureF,Max Dew PointF,MeanDew PointF,Min DewpointF,Max Humidity, Mean Humidity, Min Humidity, Max Sea Level PressureIn, Mean Sea Level PressureIn, Min Sea Level PressureIn, Max VisibilityMiles, Mean VisibilityMiles, Min VisibilityMiles, Max Wind SpeedMPH, Mean Wind SpeedMPH, Max Gust SpeedMPH,PrecipitationIn, CloudCover, Events, WindDirDegrees
2011-10-1,84,62,42,45,41,38,89,49,21,30.04,29.96,29.92,10,10,10,14,5,,0.00,0,,141
2011-10-2,80,64,50,46,43,39,77,47,25,30.00,29.96,29.92,10,10,10,12,5,17,0.00,1,,265
2011-10-3,82,64,46,54,44,35,83,51,18,30.09,29.98,29.85,10,10,10,12,3,25,0.00,2,Rain-Thunderstorm,135
2011-10-4,71,62,53,54,50,45,88,72,42,29.99,29.78,29.65,10,9,2,31,7,38,0.12,4,Rain-Thunderstorm,178
2011-10-5,64,52,42,50,44,39,93,71,44,29.62,29.53,29.41,10,10,4,20,9,29,0.16,7,Rain,183
2011-10-6,42,40,37,39,36,34,93,87,73,29.84,29.67,29.53,10,10,4,10,6,,0.29,8,Rain,343
2011-10-7,44,42,39,39,37,35,93,83,76,30.11,29.99,29.85,10,10,8,12,3,,0.08,8,Rain,155
2011-10-8,54,47,41,42,39,38,96,78,57,30.22,30.16,30.07,10,10,6,9,3,,0.03,7,Rain,4
2011-10-9,59,44,30,39,36,30,100,81,44,30.22,30.13,30.01,10,8,0,8,3,,0.00,1,Fog,350
2011-10-10,62,47,33,44,37,32,100,75,39,30.02,29.95,29.85,10,9,1,18,3,25,0.01,4,Rain,206
2011-10-11,64,55,46,49,44,40,93,74,43,30.10,29.93,29.86,10,10,6,15,4,25,0.10,6,Rain,145
2011-10-12,62,48,35,40,36,32,89,64,34,30.25,30.19,30.10,10,10,10,7,3,,0.00,1,,146
2011-10-13,68,52,37,41,37,31,93,65,26,30.19,30.09,29.99,10,10,8,6,2,,0.00,2,,354
2011-10-14,73,54,37,42,38,35,89,62,28,30.07,30.01,29.97,10,10,10,5,1,,0.00,2,,45
2011-10-15,77,57,39,46,40,35,97,65,23,30.02,29.96,29.88,10,10,10,7,2,,0.00,0,,313
2011-10-16,66,52,39,48,42,37,93,68,37,30.10,29.98,29.91,10,10,6,24,4,34,0.13,4,Rain,134
2011-10-17,57,48,39,45,40,34,100,78,42,30.38,30.27,30.08,10,10,6,10,3,,0.07,4,Rain,15
2011-10-18,60,44,30,36,33,28,100,74,32,30.47,30.37,30.25,10,9,2,7,0,,0.00,0,,140
2011-10-19,64,46,30,37,33,28,92,68,29,30.22,30.08,29.94,10,10,5,8,2,,0.00,1,,8
2011-10-20,66,48,32,38,34,30,92,67,32,30.17,30.11,30.05,10,10,10,5,1,,0.00,0,,238
2011-10-21,68,51,36,41,37,33,89,65,31,30.21,30.16,30.12,10,10,10,5,1,,0.00,1,,68
2011-10-22,64,50,36,39,36,32,89,68,35,30.31,30.26,30.20,10,10,10,7,2,,0.00,0,,199
2011-10-23,68,49,32,40,35,29,92,68,30,30.31,30.20,30.08,10,10,10,6,0,,0.00,0,,30
2011-10-24,70,50,32,39,34,29,93,65,25,30.06,29.97,29.85,10,9,1,16,4,22,0.00,1,,355
2011-10-25,48,40,32,37,28,23,82,60,39,30.18,30.10,29.96,10,10,10,14,7,17,0.04,1,Rain,353
2011-10-26,48,36,23,24,18,10,85,56,22,30.32,30.25,30.18,10,10,10,15,4,,0.00,0,,341
2011-10-27,50,34,21,21,17,10,88,54,21,30.32,30.27,30.19,10,10,10,7,2,,0.00,0,,284
2011-10-28,53,36,19,25,20,16,89,63,23,30.45,30.34,30.25,10,10,10,6,2,,0.00,0,,112
2011-10-29,57,40,23,29,23,14,88,58,20,30.30,30.24,30.19,10,10,10,8,3,,0.00,3,,209
2011-10-30,61,43,26,33,28,22,89,66,31,30.38,30.29,30.21,10,10,10,7,2,,0.00,0,,9
2011-10-31,61,44,28,43,32,25,93,66,32,30.21,30.10,30.00,10,10,7,6,2,,0.09,5,Rain,22